Time;durP1;ratioP1;P1;durP2;ratioP2;P2;SDS_P1;SDS_P2;PMS_P1;PMS_P2;Temp;Humidity;BMP_temperature;BMP_pressure;BME280_temperature;BME280_humidity;BME280_pressure;Samples;Min_cycle;Max_cycle;Signal;HPM_P1;HPM_P2
2022/04/08 00:01:44;;;;;;;6.00;1.77;;;;;;;9.39;81.37;99425.66;4827641;29;20045;-76
2022/04/08 00:04:10;;;;;;;8.43;2.25;;;;;;;9.37;81.27;99423.19;4811964;29;20424;-76
2022/04/08 00:06:35;;;;;;;8.73;1.80;;;;;;;9.36;81.63;99421.53;4813087;29;20042;-76
2022/04/08 00:09:01;;;;;;;5.60;1.58;;;;;;;9.34;81.10;99417.44;4812794;29;20079;-77
2022/04/08 00:11:26;;;;;;;10.10;1.60;;;;;;;9.32;82.07;99412.22;4811350;29;20074;-76
2022/04/08 00:13:53;;;;;;;8.40;1.88;;;;;;;9.32;82.42;99414.97;4831481;29;20038;-77
2022/04/08 00:16:19;;;;;;;6.95;1.35;;;;;;;9.31;82.18;99405.03;4827624;29;20103;-76
2022/04/08 00:18:45;;;;;;;6.88;1.23;;;;;;;9.28;82.64;99402.06;4811081;29;20054;-76
2022/04/08 00:21:11;;;;;;;7.45;1.70;;;;;;;9.25;82.74;99403.53;4827636;29;20045;-76
2022/04/08 00:23:36;;;;;;;5.25;1.45;;;;;;;9.24;82.73;99395.50;4812959;29;20488;-76
2022/04/08 00:26:02;;;;;;;9.23;1.48;;;;;;;9.23;82.85;99394.69;4809483;29;20039;-76
2022/04/08 00:28:27;;;;;;;9.57;2.08;;;;;;;9.21;83.14;99396.13;4812478;29;20064;-76
2022/04/08 00:30:53;;;;;;;7.03;1.40;;;;;;;9.20;82.89;99397.28;4812138;29;20087;-76
2022/04/08 00:33:18;;;;;;;10.07;1.63;;;;;;;9.16;82.81;99389.59;4812256;29;20043;-76
2022/04/08 00:35:44;;;;;;;11.32;1.75;;;;;;;9.15;83.73;99385.16;4829596;29;20484;-76
2022/04/08 00:38:09;;;;;;;6.82;1.60;;;;;;;9.15;83.95;99387.13;4831812;29;20039;-76
2022/04/08 00:40:35;;;;;;;8.32;1.92;;;;;;;9.14;84.42;99386.31;4827663;29;20063;-76
2022/04/08 00:43:13;;;;;;;12.95;2.17;;;;;;;9.11;84.03;99369.47;4828765;29;20038;-76
2022/04/08 00:45:42;;;;;;;8.73;1.70;;;;;;;9.11;83.73;99370.31;4823793;29;20085;-77
2022/04/08 00:48:08;;;;;;;9.90;1.90;;;;;;;9.11;84.78;99363.94;4842514;29;20039;-77
2022/04/08 00:50:37;;;;;;;9.20;1.88;;;;;;;9.08;84.34;99356.25;4812135;29;20091;-77
2022/04/08 00:53:06;;;;;;;6.85;1.38;;;;;;;9.04;84.54;99352.47;4797131;29;20065;-77
2022/04/08 00:55:35;;;;;;;10.80;1.52;;;;;;;8.98;84.94;99348.19;4812037;29;20038;-77
2022/04/08 00:58:02;;;;;;;8.70;1.83;;;;;;;9.00;84.92;99345.91;4827053;29;20384;-77
2022/04/08 01:00:29;;;;;;;11.88;1.75;;;;;;;9.02;85.60;99349.19;4812677;29;20068;-77
2022/04/08 01:02:54;;;;;;;5.78;2.00;;;;;;;8.99;85.68;99335.97;4816199;29;20086;-77
2022/04/08 01:05:20;;;;;;;6.78;1.95;;;;;;;9.00;85.67;99329.28;4811979;29;20034;-77
2022/04/08 01:07:45;;;;;;;8.75;2.22;;;;;;;9.00;85.91;99326.53;4812143;29;20046;-77
2022/04/08 01:10:11;;;;;;;9.38;1.88;;;;;;;8.99;86.10;99314.63;4809768;29;20027;-76
2022/04/08 01:12:37;;;;;;;6.53;1.52;;;;;;;8.93;85.63;99322.25;4823878;29;20100;-77
2022/04/08 01:15:02;;;;;;;9.27;2.20;;;;;;;8.94;86.39;99318.38;4809606;29;20039;-77
2022/04/08 01:17:28;;;;;;;10.45;2.20;;;;;;;8.92;86.28;99311.50;4811839;29;20039;-77
2022/04/08 01:19:54;;;;;;;9.57;1.92;;;;;;;8.92;86.46;99300.41;4781560;29;20027;-77
2022/04/08 01:22:23;;;;;;;9.07;2.30;;;;;;;8.92;86.62;99297.66;4811665;29;20030;-77
2022/04/08 01:24:49;;;;;;;12.68;2.40;;;;;;;8.88;86.24;99308.50;4812012;29;20062;-77
2022/04/08 01:27:21;;;;;;;8.15;2.03;;;;;;;8.88;86.72;99293.84;4830939;29;20031;-77
2022/04/08 01:29:47;;;;;;;9.73;1.90;;;;;;;8.89;87.16;99299.09;4812371;29;20095;-77
2022/04/08 01:32:14;;;;;;;9.65;2.10;;;;;;;8.89;87.67;99289.97;4811546;29;20041;-77
2022/04/08 01:34:40;;;;;;;9.90;2.30;;;;;;;8.84;87.00;99288.13;4811477;29;20046;-77
2022/04/08 01:37:05;;;;;;;8.52;1.60;;;;;;;8.87;87.51;99278.38;4826483;29;20034;-77
2022/04/08 01:39:31;;;;;;;9.90;2.25;;;;;;;8.85;87.67;99275.09;4826528;29;20034;-77
2022/04/08 01:41:56;;;;;;;11.32;2.70;;;;;;;8.83;87.94;99269.91;4811063;29;20138;-77
2022/04/08 01:44:22;;;;;;;7.97;1.90;;;;;;;8.84;87.87;99265.16;4827613;29;20083;-77
2022/04/08 01:46:47;;;;;;;7.00;2.20;;;;;;;8.84;87.88;99265.16;4825960;29;20042;-77
2022/04/08 01:49:13;;;;;;;10.93;2.50;;;;;;;8.83;88.81;99252.44;4824839;29;20031;-76
2022/04/08 01:51:39;;;;;;;10.32;2.00;;;;;;;8.82;88.57;99253.59;4835292;29;20061;-77
2022/04/08 01:54:04;;;;;;;13.88;2.70;;;;;;;8.81;88.84;99241.69;4828824;29;20395;-76
2022/04/08 01:56:30;;;;;;;10.07;2.05;;;;;;;8.81;87.50;99235.34;4826387;29;20030;-77
2022/04/08 01:58:55;;;;;;;11.93;2.20;;;;;;;8.83;87.24;99233.06;4808328;29;20034;-77
2022/04/08 02:01:21;;;;;;;12.05;2.58;;;;;;;8.81;88.20;99221.50;4825913;29;20094;-77
2022/04/08 02:03:46;;;;;;;10.93;1.85;;;;;;;8.79;88.97;99212.69;4810914;29;20033;-76
2022/04/08 02:06:12;;;;;;;12.55;2.45;;;;;;;8.80;88.71;99208.78;4825840;29;20035;-77
2022/04/08 02:08:39;;;;;;;9.25;2.25;;;;;;;8.80;88.78;99198.50;4810740;29;20039;-77
2022/04/08 02:11:04;;;;;;;11.95;2.22;;;;;;;8.78;88.29;99194.44;4827384;29;20047;-77
2022/04/08 02:13:30;;;;;;;9.57;2.33;;;;;;;8.79;88.40;99196.06;4825371;29;20035;-77
2022/04/08 02:15:55;;;;;;;10.57;1.98;;;;;;;8.75;88.44;99190.34;4826397;29;20068;-77
2022/04/08 02:18:21;;;;;;;11.38;2.03;;;;;;;8.75;88.37;99178.44;4809416;29;20042;-77
2022/04/08 02:20:46;;;;;;;9.38;2.53;;;;;;;8.77;88.84;99177.00;4826152;29;20034;-77
2022/04/08 02:23:12;;;;;;;9.05;2.55;;;;;;;8.75;88.87;99172.91;4810706;29;20049;-77
2022/04/08 02:25:38;;;;;;;10.48;2.13;;;;;;;8.74;89.58;99166.56;4807806;29;20043;-77
2022/04/08 02:28:03;;;;;;;12.02;2.28;;;;;;;8.75;89.74;99161.84;4814175;29;20046;-77
2022/04/08 02:30:29;;;;;;;9.75;2.13;;;;;;;8.73;89.50;99154.69;4825596;29;20546;-77
2022/04/08 02:32:57;;;;;;;7.30;1.48;;;;;;;8.72;89.19;99147.50;4810601;29;20033;-77
2022/04/08 02:35:23;;;;;;;11.55;2.47;;;;;;;8.71;90.31;99143.09;4811252;29;20033;-77
2022/04/08 02:37:51;;;;;;;10.93;2.13;;;;;;;8.71;89.38;99134.78;4825907;29;20062;-77
2022/04/08 02:40:19;;;;;;;9.55;2.03;;;;;;;8.70;89.48;99122.09;4813793;29;20042;-77
2022/04/08 02:42:45;;;;;;;9.32;2.35;;;;;;;8.69;90.59;99109.41;4813219;29;20077;-77
2022/04/08 02:45:10;;;;;;;12.00;2.20;;;;;;;8.70;90.85;99099.94;4810694;29;20067;-77
2022/04/08 02:47:46;;;;;;;12.18;2.20;;;;;;;8.69;91.02;99092.78;4810457;29;20392;-77
2022/04/08 02:50:11;;;;;;;6.93;1.92;;;;;;;8.70;91.13;99085.31;4810906;29;20116;-77
2022/04/08 02:52:37;;;;;;;6.40;1.90;;;;;;;8.69;91.86;99069.81;4810457;29;20027;-77
2022/04/08 02:55:04;;;;;;;12.88;1.98;;;;;;;8.66;91.58;99068.53;4792364;29;20096;-77
2022/04/08 02:57:29;;;;;;;9.43;2.42;;;;;;;8.65;90.57;99066.88;4807127;29;20034;-77
2022/04/08 02:59:58;;;;;;;8.90;2.08;;;;;;;8.64;89.81;99050.59;4821949;29;20521;-77
2022/04/08 03:02:23;;;;;;;7.63;1.65;;;;;;;8.64;90.19;99040.34;4797808;29;20039;-77
2022/04/08 03:04:54;;;;;;;10.63;2.17;;;;;;;8.67;90.88;99022.28;4797525;29;20052;-77
2022/04/08 03:07:20;;;;;;;10.98;1.92;;;;;;;8.66;90.69;99032.53;4813488;29;20056;-77
2022/04/08 03:09:46;;;;;;;11.75;2.13;;;;;;;8.63;89.94;99015.72;4825283;29;20039;-77
2022/04/08 03:12:14;;;;;;;10.07;2.13;;;;;;;8.64;91.33;99017.38;4810461;29;20038;-77
2022/04/08 03:14:42;;;;;;;9.25;2.10;;;;;;;8.63;91.08;98997.16;4809966;29;20054;-77
2022/04/08 03:17:10;;;;;;;9.80;1.83;;;;;;;8.62;90.86;98986.44;4810682;29;20032;-77
2022/04/08 03:19:42;;;;;;;7.80;1.67;;;;;;;8.64;90.98;98976.69;4813416;29;20463;-77
2022/04/08 03:22:07;;;;;;;8.40;2.17;;;;;;;8.59;90.27;98962.97;4799227;29;20038;-77
2022/04/08 03:24:35;;;;;;;9.10;2.10;;;;;;;8.60;91.34;98944.41;4813868;29;20030;-77
2022/04/08 03:27:01;;;;;;;8.77;1.52;;;;;;;8.61;91.74;98948.81;4813668;29;20037;-77
2022/04/08 03:29:27;;;;;;;14.65;2.08;;;;;;;8.60;92.69;98931.38;4800017;29;20411;-78
2022/04/08 03:32:05;;;;;;;12.38;2.00;;;;;;;8.57;92.39;98923.72;4817214;29;20210;-77
2022/04/08 03:34:35;;;;;;;9.55;2.05;;;;;;;8.59;92.69;98926.19;4812811;29;20031;-77
2022/04/08 03:37:18;;;;;;;9.85;2.00;;;;;;;8.59;92.15;98901.28;4810761;29;20168;-78
2022/04/08 03:39:53;;;;;;;9.45;2.25;;;;;;;8.57;94.06;98890.53;4796814;29;20492;-79
2022/04/08 03:42:34;;;;;;;7.50;2.15;;;;;;;8.52;92.83;98865.75;4806595;29;20051;-77
2022/04/08 03:45:24;;;;;;;10.18;2.00;;;;;;;8.50;93.53;98859.75;4814358;29;20460;-77
2022/04/08 03:48:02;;;;;;;7.65;1.60;;;;;;;8.52;95.61;98837.28;4818447;29;20030;-78
2022/04/08 03:50:51;;;;;;;8.60;2.03;;;;;;;8.51;95.80;98822.66;4816503;29;20373;-78
2022/04/08 03:53:25;;;;;;;10.40;2.03;;;;;;;8.51;95.63;98808.81;4814283;29;20498;-77
2022/04/08 03:55:58;;;;;;;9.40;2.03;;;;;;;8.49;95.79;98800.00;4799164;29;20045;-77
2022/04/08 03:58:44;;;;;;;7.75;1.85;;;;;;;8.52;96.00;98798.56;4813971;29;20034;-77
2022/04/08 04:01:38;;;;;;;10.43;1.80;;;;;;;8.50;96.63;98785.06;4812616;29;20081;-77
2022/04/08 04:04:45;;;;;;;7.85;2.00;;;;;;;8.50;97.10;98780.34;4814254;29;20174;-78
2022/04/08 04:07:37;;;;;;;;;;;;;;;;;;;;;
2022/04/08 04:11:19;;;;;;;;;;;;;;;;;;;;;
2022/04/08 04:14:39;;;;;;;;;;;;;;;;;;;;;
2022/04/08 04:17:37;;;;;;;5.97;1.60;;;;;;;8.41;95.66;98745.47;4759832;30;20053;-78
2022/04/08 04:20:23;;;;;;;5.25;1.50;;;;;;;8.43;97.83;98701.72;4746798;30;20052;-78
2022/04/08 04:22:53;;;;;;;5.45;1.75;;;;;;;8.43;100.00;98662.97;4757123;30;20050;-78
2022/04/08 04:25:42;;;;;;;5.22;1.20;;;;;;;8.42;100.00;98661.38;4751186;30;20046;-78
2022/04/08 04:31:55;;;;;;;3.72;1.00;;;;;;;8.38;100.00;98663.91;4765857;30;20144;-77
2022/04/08 04:35:06;;;;;;;4.00;1.40;;;;;;;8.33;100.00;98657.72;4774732;30;20043;-77
2022/04/08 04:45:17;;;;;;;2.90;1.20;;;;;;;8.40;100.00;98624.91;4787787;29;20104;-77
2022/04/08 04:48:22;;;;;;;5.15;1.13;;;;;;;8.41;100.00;98621.00;4775765;30;20523;-78
2022/04/08 04:51:30;;;;;;;;;;;;;;;8.37;100.00;98603.41;4772988;30;20047;-77
2022/04/08 04:54:58;;;;;;;;;;;;;;;;;;;;;
2022/04/08 04:57:53;;;;;;;2.63;0.95;;;;;;;8.42;100.00;98597.75;4752134;30;20052;-78
2022/04/08 05:00:42;;;;;;;2.92;0.80;;;;;;;8.41;100.00;98580.34;4787962;29;20047;-78
2022/04/08 05:03:49;;;;;;;2.58;0.88;;;;;;;8.43;100.00;98578.03;4791783;29;20419;-78
2022/04/08 05:06:30;;;;;;;1.42;0.80;;;;;;;8.44;100.00;98559.47;4781884;29;20070;-77
2022/04/08 05:09:17;;;;;;;2.10;0.90;;;;;;;8.43;100.00;98544.84;4780078;30;20454;-78
2022/04/08 05:11:49;;;;;;;1.35;0.68;;;;;;;8.43;100.00;98550.38;4792223;29;20039;-77
2022/04/08 05:15:42;;;;;;;;;;;;;;;;;;;;;
2022/04/08 05:18:29;;;;;;;1.88;0.70;;;;;;;8.45;100.00;98528.72;4808989;29;20159;-77
2022/04/08 05:21:26;;;;;;;;;;;;;;;;;;;;;
2022/04/08 05:23:55;;;;;;;1.85;0.68;;;;;;;8.47;100.00;98511.81;4772563;29;20469;-77
2022/04/08 05:26:29;;;;;;;2.38;0.70;;;;;;;8.49;100.00;98507.56;4787406;29;20467;-78
2022/04/08 05:29:11;;;;;;;1.02;0.52;;;;;;;8.49;100.00;98495.69;4791504;29;20491;-78
2022/04/08 05:31:58;;;;;;;1.17;0.52;;;;;;;8.53;100.00;98482.84;4808642;29;20042;-77
2022/04/08 05:34:32;;;;;;;2.65;0.65;;;;;;;8.56;100.00;98486.91;4797516;29;20118;-77
2022/04/08 05:37:31;;;;;;;1.00;0.50;;;;;;;8.58;100.00;98482.66;4762354;30;20528;-77
2022/04/08 05:47:13;;;;;;;2.03;0.40;;;;;;;8.63;100.00;98443.72;4791516;29;20046;-77
2022/04/08 05:49:30;;;;;;;1.95;0.65;;;;;;;8.67;100.00;98441.13;4778818;29;20089;-76
2022/04/08 05:52:04;;;;;;;2.00;0.70;;;;;;;8.67;100.00;98433.63;4762032;29;20035;-77
2022/04/08 05:54:38;;;;;;;1.42;0.70;;;;;;;8.71;100.00;98434.56;4777216;29;20047;-77
2022/04/08 05:57:45;;;;;;;2.40;0.55;;;;;;;8.73;100.00;98415.69;4775564;29;20505;-77
2022/04/08 06:00:40;;;;;;;16.05;9.85;;;;;;;8.79;100.00;98399.69;4809788;29;20042;-77
2022/04/08 06:03:08;;;;;;;25.70;14.57;;;;;;;8.82;100.00;98399.03;4788804;30;20441;-77
2022/04/08 06:05:34;;;;;;;13.90;7.43;;;;;;;8.86;100.00;98388.09;4758868;29;20645;-74
2022/04/08 06:07:59;;;;;;;10.55;5.63;;;;;;;8.92;100.00;98387.59;4791889;29;20191;-72
2022/04/08 06:10:26;;;;;;;8.77;3.80;;;;;;;8.97;100.00;98375.50;4776360;29;20031;-73
2022/04/08 06:12:53;;;;;;;9.07;3.72;;;;;;;9.02;100.00;98378.06;4806610;29;20681;-73
2022/04/08 06:15:19;;;;;;;8.95;3.65;;;;;;;9.06;100.00;98381.00;4776166;29;20062;-72
2022/04/08 06:17:45;;;;;;;8.88;3.50;;;;;;;9.09;100.00;98370.03;4790017;29;20445;-73
2022/04/08 06:20:11;;;;;;;6.75;3.00;;;;;;;9.15;100.00;98351.28;4806315;29;20086;-72
2022/04/08 06:22:39;;;;;;;6.13;2.80;;;;;;;9.22;100.00;98364.56;4809833;29;20434;-72
2022/04/08 06:25:15;;;;;;;8.35;2.85;;;;;;;9.26;100.00;98351.69;4812529;29;20035;-72
2022/04/08 06:27:42;;;;;;;9.38;2.65;;;;;;;9.33;100.00;98354.72;4813932;29;20035;-73
2022/04/08 06:30:12;;;;;;;10.15;2.70;;;;;;;9.42;100.00;98349.94;4808410;29;20034;-72
2022/04/08 06:32:41;;;;;;;12.55;2.40;;;;;;;9.48;100.00;98334.72;4805102;29;20090;-72
2022/04/08 06:35:07;;;;;;;6.78;2.28;;;;;;;9.49;100.00;98341.88;4807489;29;20396;-72
2022/04/08 06:37:32;;;;;;;8.27;2.78;;;;;;;9.55;100.00;98362.66;4809262;29;20042;-72
2022/04/08 06:40:05;;;;;;;9.15;2.85;;;;;;;9.58;100.00;98353.69;4808927;29;20039;-75
2022/04/08 06:42:31;;;;;;;10.63;3.00;;;;;;;9.62;100.00;98346.31;4808933;29;20043;-74
2022/04/08 06:44:56;;;;;;;8.07;2.97;;;;;;;9.67;100.00;98350.84;4825451;29;20060;-74
2022/04/08 06:47:23;;;;;;;8.18;2.78;;;;;;;9.71;100.00;98346.22;4810773;29;20130;-74
2022/04/08 06:49:49;;;;;;;6.53;2.33;;;;;;;9.74;100.00;98340.00;4824655;29;20054;-73
2022/04/08 06:52:15;;;;;;;7.38;1.88;;;;;;;9.82;100.00;98332.75;4835889;29;20042;-73
2022/04/08 06:54:41;;;;;;;8.88;2.55;;;;;;;9.84;100.00;98322.94;4829095;29;20063;-74
2022/04/08 06:57:07;;;;;;;4.45;2.00;;;;;;;9.93;100.00;98330.34;4827878;29;20539;-74
2022/04/08 06:59:33;;;;;;;8.40;1.77;;;;;;;9.95;100.00;98326.09;4829886;29;20034;-73
2022/04/08 07:01:58;;;;;;;7.10;1.65;;;;;;;10.00;100.00;98338.91;4812381;29;20031;-74
2022/04/08 07:04:25;;;;;;;6.40;2.10;;;;;;;10.02;100.00;98317.19;4828421;29;20026;-74
2022/04/08 07:06:52;;;;;;;5.20;1.80;;;;;;;10.06;100.00;98323.69;4828541;29;20101;-73
2022/04/08 07:09:17;;;;;;;4.13;1.60;;;;;;;10.09;100.00;98333.28;4829663;29;20034;-74
2022/04/08 07:11:43;;;;;;;5.78;1.60;;;;;;;10.12;100.00;98333.41;4829932;29;20042;-74
2022/04/08 07:14:08;;;;;;;4.95;1.42;;;;;;;10.12;100.00;98332.59;4831010;29;20043;-74
2022/04/08 07:16:34;;;;;;;4.88;1.27;;;;;;;10.13;100.00;98342.53;4830994;29;20091;-74
2022/04/08 07:18:59;;;;;;;4.32;1.00;;;;;;;10.14;100.00;98335.81;4828522;29;20042;-74
2022/04/08 07:21:26;;;;;;;5.63;1.50;;;;;;;10.17;100.00;98327.66;4839969;29;20404;-73
2022/04/08 07:23:51;;;;;;;5.95;1.55;;;;;;;10.16;100.00;98333.53;4828291;29;20026;-73
2022/04/08 07:26:20;;;;;;;3.50;1.23;;;;;;;10.17;100.00;98340.69;4826777;29;20457;-74
2022/04/08 07:28:46;;;;;;;4.82;1.40;;;;;;;10.18;100.00;98334.81;4829676;29;20038;-74
2022/04/08 07:31:12;;;;;;;2.60;1.15;;;;;;;10.19;100.00;98341.16;4829527;29;20043;-74
2022/04/08 07:33:38;;;;;;;4.45;1.17;;;;;;;10.23;100.00;98333.78;4829434;29;20039;-74
2022/04/08 07:36:04;;;;;;;4.88;1.20;;;;;;;10.21;100.00;98336.06;4843758;29;20442;-73
2022/04/08 07:38:30;;;;;;;4.32;1.30;;;;;;;10.22;100.00;98330.19;4817153;29;20041;-73
2022/04/08 07:40:57;;;;;;;5.50;1.20;;;;;;;10.24;100.00;98289.03;4829744;29;20034;-73
2022/04/08 07:43:23;;;;;;;6.00;1.40;;;;;;;10.23;100.00;98300.50;4828712;29;20061;-74
2022/04/08 07:45:49;;;;;;;5.32;1.80;;;;;;;10.25;100.00;98312.84;4829122;29;20045;-73
2022/04/08 07:48:15;;;;;;;4.43;1.40;;;;;;;10.26;100.00;98299.78;4828225;29;20026;-73
2022/04/08 07:50:40;;;;;;;3.42;1.30;;;;;;;10.28;100.00;98300.28;4825710;29;20050;-74
2022/04/08 07:53:06;;;;;;;5.50;1.52;;;;;;;10.28;100.00;98300.28;4828138;29;20030;-74
2022/04/08 07:55:32;;;;;;;4.03;1.17;;;;;;;10.32;100.00;98297.63;4829261;29;20485;-74
2022/04/08 07:57:57;;;;;;;3.00;1.52;;;;;;;10.29;100.00;98299.13;4827714;29;20030;-74
2022/04/08 08:00:27;;;;;;;2.05;0.93;;;;;;;10.32;100.00;98297.63;4827959;29;20389;-74
2022/04/08 08:02:53;;;;;;;4.00;1.10;;;;;;;10.31;100.00;98287.66;4828843;29;20074;-74
2022/04/08 08:05:20;;;;;;;4.38;1.10;;;;;;;10.33;100.00;98291.72;4823924;29;20031;-74
2022/04/08 08:07:52;;;;;;;3.03;1.30;;;;;;;10.33;100.00;98288.94;4827991;29;20060;-74
2022/04/08 08:10:19;;;;;;;5.80;1.20;;;;;;;10.36;100.00;98279.13;4827693;29;20038;-74
2022/04/08 08:12:44;;;;;;;3.47;1.10;;;;;;;10.35;100.00;98269.19;4812820;29;20072;-74
2022/04/08 08:15:10;;;;;;;1.45;0.80;;;;;;;10.36;100.00;98279.13;4827460;29;20046;-74
2022/04/08 08:17:37;;;;;;;2.92;1.10;;;;;;;10.38;100.00;98272.06;4829130;29;20046;-74
2022/04/08 08:20:04;;;;;;;2.22;1.20;;;;;;;10.39;100.00;98272.88;4829009;29;20421;-74
2022/04/08 08:22:29;;;;;;;3.55;1.10;;;;;;;10.40;100.00;98269.75;4828906;29;20556;-74
2022/04/08 08:24:55;;;;;;;6.65;1.27;;;;;;;10.42;100.00;98266.63;4828944;29;20026;-74
2022/04/08 08:27:20;;;;;;;3.30;1.30;;;;;;;10.42;100.00;98270.22;4832072;29;20038;-74
2022/04/08 08:29:46;;;;;;;3.65;1.30;;;;;;;10.44;100.00;98256.00;4830688;29;20038;-74
2022/04/08 08:32:11;;;;;;;6.68;1.60;;;;;;;10.48;100.00;98246.63;4828622;29;20030;-74
2022/04/08 08:34:37;;;;;;;4.65;1.63;;;;;;;10.54;100.00;98294.38;4828369;29;20041;-74
2022/04/08 08:37:03;;;;;;;5.82;1.40;;;;;;;10.57;100.00;98265.13;4827485;29;20498;-74
2022/04/08 08:39:28;;;;;;;8.40;1.45;;;;;;;10.61;100.00;98271.59;4827463;29;20069;-74
2022/04/08 08:41:55;;;;;;;4.78;1.20;;;;;;;10.64;100.00;98259.78;4828591;29;20606;-74
2022/04/08 08:44:20;;;;;;;4.00;1.50;;;;;;;10.64;100.00;98260.63;4811969;29;20050;-74
2022/04/08 08:46:46;;;;;;;4.72;1.45;;;;;;;10.68;100.00;98280.16;4812028;29;20049;-74
2022/04/08 08:49:11;;;;;;;2.85;0.90;;;;;;;10.72;100.00;98283.84;4826056;29;20035;-74
2022/04/08 08:51:37;;;;;;;3.55;0.98;;;;;;;10.77;100.00;98271.69;4818976;29;20117;-74
2022/04/08 08:54:02;;;;;;;3.22;0.80;;;;;;;10.79;100.00;98264.63;4830647;29;20041;-74
2022/04/08 08:56:28;;;;;;;5.05;1.10;;;;;;;10.82;100.00;98257.56;4812097;29;20038;-73
2022/04/08 08:58:53;;;;;;;1.70;0.63;;;;;;;10.84;100.00;98253.28;4826914;29;20083;-73
2022/04/08 09:01:19;;;;;;;1.88;0.80;;;;;;;10.89;100.00;98278.03;4826364;29;20063;-74
2022/04/08 09:03:45;;;;;;;4.18;0.98;;;;;;;10.92;100.00;98284.84;4826852;29;20050;-73
2022/04/08 09:06:10;;;;;;;2.53;1.00;;;;;;;10.98;100.00;98268.75;4828142;29;20034;-73
2022/04/08 09:08:36;;;;;;;5.10;1.60;;;;;;;11.08;100.00;98268.25;4828129;29;20030;-73
2022/04/08 09:11:02;;;;;;;5.55;1.17;;;;;;;11.16;100.00;98267.31;4828274;29;20047;-73
2022/04/08 09:13:28;;;;;;;5.32;1.52;;;;;;;11.24;100.00;98274.69;4826795;29;20049;-73
2022/04/08 09:15:58;;;;;;;4.65;1.10;;;;;;;11.30;100.00;98273.28;4829427;29;20710;-74
2022/04/08 09:18:23;;;;;;;7.43;1.50;;;;;;;11.36;100.00;98282.97;4829575;29;20065;-74
2022/04/08 09:20:49;;;;;;;9.00;1.88;;;;;;;11.46;100.00;98278.09;4826775;29;20546;-73
2022/04/08 09:23:17;;;;;;;7.88;1.95;;;;;;;11.51;100.00;98264.75;4826917;29;20038;-74
2022/04/08 09:25:42;;;;;;;7.32;1.73;;;;;;;11.53;100.00;98267.97;4808486;29;20035;-74
2022/04/08 09:28:12;;;;;;;9.07;1.80;;;;;;;11.58;100.00;98286.34;4824204;29;20042;-74
2022/04/08 09:30:38;;;;;;;8.85;1.73;;;;;;;11.65;100.00;98283.78;4827595;29;20045;-74
2022/04/08 09:33:14;;;;;;;11.20;2.38;;;;;;;11.70;100.00;98291.03;4827876;29;20091;-74
2022/04/08 09:35:40;;;;;;;6.63;1.95;;;;;;;11.73;100.00;98282.81;4826684;29;20045;-74
2022/04/08 09:38:05;;;;;;;12.10;2.83;;;;;;;11.78;100.00;98262.25;4827898;29;20045;-74
2022/04/08 09:40:42;;;;;;;19.23;3.25;;;;;;;11.84;100.00;98267.22;4828185;29;20034;-74
2022/04/08 09:43:07;;;;;;;22.33;3.42;;;;;;;11.91;100.00;98251.91;4830923;29;20054;-74
2022/04/08 09:45:33;;;;;;;19.63;3.08;;;;;;;11.95;100.00;98270.31;4826411;29;20038;-74
2022/04/08 09:48:02;;;;;;;26.25;3.83;;;;;;;12.00;100.00;98252.53;4827998;29;20451;-74
2022/04/08 09:50:27;;;;;;;20.65;3.70;;;;;;;12.06;100.00;98256.66;4826502;29;20030;-74
2022/04/08 09:52:54;;;;;;;21.65;4.10;;;;;;;12.08;100.00;98260.69;4826498;29;20042;-74
2022/04/08 09:55:21;;;;;;;22.73;4.20;;;;;;;12.15;100.00;98262.88;4827677;29;20035;-75
2022/04/08 09:57:48;;;;;;;20.20;3.63;;;;;;;12.16;100.00;98261.69;4826419;29;20045;-75
2022/04/08 10:00:13;;;;;;;19.48;3.88;;;;;;;12.18;100.00;98253.81;4810082;29;20034;-76
2022/04/08 10:02:40;;;;;;;23.90;4.30;;;;;;;12.22;100.00;98251.91;4811095;29;20046;-75
2022/04/08 10:05:07;;;;;;;23.33;3.70;;;;;;;12.25;100.00;98259.53;4827497;29;20537;-75
2022/04/08 10:07:32;;;;;;;22.95;3.55;;;;;;;12.28;100.00;98252.44;4815062;29;20041;-75
2022/04/08 10:10:00;;;;;;;20.70;4.38;;;;;;;12.25;100.00;98253.97;4811291;29;20043;-75
2022/04/08 10:12:47;;;;;;;23.65;4.20;;;;;;;12.26;100.00;98274.28;4826079;29;20034;-75
2022/04/08 10:15:27;;;;;;;30.05;4.55;;;;;;;12.23;100.00;98278.59;4811108;29;20039;-75
2022/04/08 10:17:59;;;;;;;31.42;5.85;;;;;;;12.22;100.00;98276.94;4821403;29;20034;-75
2022/04/08 10:20:25;;;;;;;25.80;5.05;;;;;;;12.23;100.00;98259.09;4826292;29;20072;-75
2022/04/08 10:22:53;;;;;;;28.48;4.82;;;;;;;12.29;100.00;98262.44;4826029;29;20046;-75
2022/04/08 10:25:20;;;;;;;33.15;5.90;;;;;;;12.32;100.00;98275.63;4810986;29;20535;-75
2022/04/08 10:27:45;;;;;;;34.90;4.90;;;;;;;12.35;100.00;98280.47;4799437;29;20045;-75
2022/04/08 10:30:13;;;;;;;29.58;4.50;;;;;;;12.38;100.00;98267.78;4810051;29;20042;-75
2022/04/08 10:32:38;;;;;;;36.92;6.18;;;;;;;12.41;100.00;98269.84;4814392;29;20600;-75
2022/04/08 10:35:29;;;;;;;27.85;4.20;;;;;;;12.43;100.00;98267.53;4815559;29;20039;-76
2022/04/08 10:37:56;;;;;;;33.28;5.07;;;;;;;12.46;100.00;98269.59;4808649;29;20637;-72
2022/04/08 10:40:34;;;;;;;29.33;4.53;;;;;;;12.53;100.00;98272.53;4825763;29;20086;-72
2022/04/08 10:43:01;;;;;;;36.83;5.50;;;;;;;12.62;100.00;98250.88;4810928;29;20046;-73
2022/04/08 10:45:27;;;;;;;33.38;5.47;;;;;;;12.78;100.00;98239.69;4810590;29;20105;-72
2022/04/08 10:47:52;;;;;;;47.03;6.10;;;;;;;12.86;100.00;98241.47;4826938;29;20045;-73
2022/04/08 10:50:30;;;;;;;37.65;5.50;;;;;;;13.04;100.00;98236.28;4826289;29;20038;-73
2022/04/08 10:53:07;;;;;;;34.67;5.88;;;;;;;13.20;100.00;98244.56;4827177;29;20026;-72
2022/04/08 10:55:46;;;;;;;40.47;6.78;;;;;;;13.44;100.00;98235.13;4829715;29;20039;-73
2022/04/08 10:58:12;;;;;;;36.10;6.13;;;;;;;13.68;100.00;98222.00;4828989;29;20042;-72
2022/04/08 11:00:40;;;;;;;40.60;6.53;;;;;;;13.92;100.00;98232.81;4826539;29;20034;-73
2022/04/08 11:03:07;;;;;;;36.60;6.18;;;;;;;14.18;100.00;98229.28;4826838;29;20117;-72
2022/04/08 11:05:38;;;;;;;28.80;5.43;;;;;;;14.48;100.00;98229.34;4825688;29;20496;-71
2022/04/08 11:08:04;;;;;;;35.50;5.82;;;;;;;14.74;100.00;98222.19;4823682;29;20031;-72
2022/04/08 11:10:31;;;;;;;27.25;4.88;;;;;;;14.97;100.00;98211.72;4826601;29;20037;-73
2022/04/08 11:12:57;;;;;;;27.83;4.68;;;;;;;15.17;100.00;98205.97;4826672;29;20042;-72
2022/04/08 11:15:24;;;;;;;30.10;5.30;;;;;;;15.37;100.00;98185.03;4810892;29;20082;-73
2022/04/08 11:17:49;;;;;;;28.33;4.75;;;;;;;15.56;100.00;98206.44;4808603;29;20086;-73
2022/04/08 11:20:16;;;;;;;30.70;4.93;;;;;;;15.73;99.00;98196.63;4811540;29;20564;-73
2022/04/08 11:22:45;;;;;;;33.92;5.05;;;;;;;15.92;96.92;98189.22;4810855;29;20089;-73
2022/04/08 11:25:30;;;;;;;29.85;5.07;;;;;;;16.10;95.35;98184.56;4808237;29;20035;-73
2022/04/08 11:28:02;;;;;;;21.52;4.35;;;;;;;16.25;93.70;98174.31;4807362;29;20035;-73
2022/04/08 11:30:29;;;;;;;26.70;4.95;;;;;;;16.38;92.64;98174.78;4825161;29;20074;-73
2022/04/08 11:32:55;;;;;;;30.80;4.93;;;;;;;16.47;91.60;98169.66;4826487;29;20404;-73
2022/04/08 11:35:20;;;;;;;30.30;4.45;;;;;;;16.56;90.69;98174.91;4824999;29;20042;-73
2022/04/08 11:37:46;;;;;;;26.48;5.10;;;;;;;16.63;90.84;98169.34;4825416;29;20031;-73
2022/04/08 11:40:16;;;;;;;26.00;4.53;;;;;;;16.68;87.51;98175.38;4828000;29;20040;-73
2022/04/08 11:42:42;;;;;;;22.20;4.57;;;;;;;16.72;86.38;98165.00;4829391;29;20051;-73
2022/04/08 11:45:09;;;;;;;24.42;4.57;;;;;;;16.74;86.47;98162.63;4831614;29;20047;-72
2022/04/08 11:47:39;;;;;;;23.42;4.55;;;;;;;16.77;87.40;98172.28;4831818;29;20041;-73
2022/04/08 11:50:08;;;;;;;33.22;5.20;;;;;;;16.78;87.00;98162.66;4829561;29;20511;-73
2022/04/08 11:52:35;;;;;;;26.63;4.72;;;;;;;16.80;86.32;98159.44;4829391;29;20026;-73
2022/04/08 11:55:08;;;;;;;25.98;4.93;;;;;;;16.84;86.17;98163.09;4829297;29;20730;-73
2022/04/08 11:57:34;;;;;;;;;;;;;;;16.88;89.04;98153.50;4828583;29;20472;-73
2022/04/08 12:00:01;;;;;;;22.27;4.07;;;;;;;16.95;87.42;98153.53;4827927;29;19913;-73
2022/04/08 12:02:27;;;;;;;19.02;4.07;;;;;;;17.00;87.04;98157.16;4828091;29;20385;-73
2022/04/08 12:04:52;;;;;;;22.77;3.90;;;;;;;17.05;88.01;98154.78;4829325;29;20438;-73
2022/04/08 12:07:30;;;;;;;17.52;3.33;;;;;;;17.13;89.87;98156.41;4829220;29;20031;-73
2022/04/08 12:09:57;;;;;;;19.88;3.00;;;;;;;17.19;89.05;98165.25;4832043;29;20054;-73
2022/04/08 12:12:26;;;;;;;16.67;3.55;;;;;;;17.19;88.99;98148.41;4830447;29;20484;-72
2022/04/08 12:14:52;;;;;;;13.20;2.67;;;;;;;17.16;87.89;98163.22;4817340;29;20099;-73